createdAt,value
2022-11-17T00:00:07.661Z,46.83
2022-11-17T00:01:11.193Z,46.83
2022-11-17T00:02:14.773Z,46.83
2022-11-17T00:03:18.491Z,46.83
2022-11-17T00:04:22.047Z,46.83
2022-11-17T00:05:25.621Z,46.83
2022-11-17T00:06:29.305Z,46.83
2022-11-17T00:07:32.921Z,46.83
2022-11-17T00:08:36.484Z,46.93
2022-11-17T00:09:40.159Z,46.83
2022-11-17T00:10:43.758Z,46.83
2022-11-17T00:11:47.342Z,46.83
2022-11-17T00:12:50.922Z,46.93
2022-11-17T00:13:54.518Z,46.83
2022-11-17T00:14:58.080Z,46.83
2022-11-17T00:16:01.694Z,46.83
2022-11-17T00:17:05.340Z,46.73
2022-11-17T00:18:08.883Z,46.73
2022-11-17T00:19:12.453Z,46.83
2022-11-17T00:20:16.070Z,46.83
2022-11-17T00:21:19.602Z,46.83
2022-11-17T00:22:23.215Z,46.93
2022-11-17T00:23:26.826Z,46.93
2022-11-17T00:24:30.324Z,46.93
2022-11-17T00:25:34.058Z,46.93
2022-11-17T00:26:37.720Z,46.93
2022-11-17T00:27:41.271Z,46.93
2022-11-17T00:28:44.856Z,46.93
2022-11-17T00:29:48.520Z,46.93
2022-11-17T00:30:52.074Z,46.93
2022-11-17T00:31:55.638Z,46.93
2022-11-17T00:32:59.324Z,46.93
2022-11-17T00:34:02.815Z,46.93
2022-11-17T00:35:06.391Z,46.93
2022-11-17T00:36:10.092Z,46.93
2022-11-17T00:37:13.658Z,46.93
2022-11-17T00:38:17.200Z,46.93
2022-11-17T00:39:20.843Z,46.93
2022-11-17T00:40:24.401Z,46.93
2022-11-17T00:41:28.052Z,46.93
2022-11-17T00:42:31.672Z,46.83
2022-11-17T00:43:35.692Z,46.83
2022-11-17T00:44:39.492Z,46.83
2022-11-17T00:45:43.031Z,46.93
2022-11-17T00:46:46.660Z,46.93
2022-11-17T00:47:50.263Z,46.93
2022-11-17T00:48:53.800Z,46.83
2022-11-17T00:49:57.431Z,46.93
2022-11-17T00:51:01.069Z,46.93
2022-11-17T00:52:04.654Z,46.93
2022-11-17T00:53:08.209Z,46.93
2022-11-17T00:54:11.891Z,46.93
2022-11-17T00:55:15.552Z,46.93
2022-11-17T00:56:19.154Z,46.93
2022-11-17T00:57:22.895Z,46.93
2022-11-17T00:58:26.553Z,46.93
2022-11-17T00:59:30.065Z,46.93
2022-11-17T01:00:33.663Z,46.93
2022-11-17T01:01:37.423Z,46.93
2022-11-17T01:02:41.001Z,47.03
2022-11-17T01:05:33.051Z,46.93
2022-11-17T01:05:36.404Z,46.93
2022-11-17T01:06:39.927Z,47.03
2022-11-17T01:07:43.552Z,47.03
2022-11-17T01:08:47.190Z,47.03
2022-11-17T01:09:50.745Z,47.03
2022-11-17T01:10:54.355Z,47.03
2022-11-17T01:11:57.997Z,47.03
2022-11-17T01:13:01.525Z,47.03
2022-11-17T01:14:05.125Z,47.03
2022-11-17T01:15:08.796Z,47.03
2022-11-17T01:16:12.381Z,46.93
2022-11-17T01:17:15.994Z,46.93
2022-11-17T01:18:19.922Z,46.93
2022-11-17T01:19:23.535Z,47.03
2022-11-17T01:20:27.071Z,47.03
2022-11-17T01:21:30.722Z,47.03
2022-11-17T01:22:34.381Z,47.05
2022-11-17T01:23:37.912Z,47.05
2022-11-17T01:24:41.515Z,47.15
2022-11-17T01:25:45.141Z,47.15
2022-11-17T01:26:48.748Z,47.15
2022-11-17T01:27:52.352Z,47.03
2022-11-17T01:28:56.122Z,47.03
2022-11-17T01:29:59.695Z,47.05
2022-11-17T01:31:03.261Z,47.03
2022-11-17T01:32:06.916Z,47.03
2022-11-17T01:33:10.446Z,47.05
2022-11-17T01:34:14.013Z,47.05
2022-11-17T01:35:17.684Z,47.05
2022-11-17T01:36:21.277Z,47.05
2022-11-17T01:37:24.832Z,47.05
2022-11-17T01:38:28.470Z,47.03
2022-11-17T01:39:32.112Z,47.03
2022-11-17T01:40:35.621Z,47.05
2022-11-17T01:41:39.250Z,46.93
2022-11-17T01:42:42.837Z,47.03
2022-11-17T01:43:46.344Z,47.03
2022-11-17T01:44:50.005Z,47.05
2022-11-17T01:45:53.612Z,47.03
2022-11-17T01:47:00.877Z,47.05
2022-11-17T01:47:59.926Z,47.05
2022-11-17T01:49:03.457Z,47.15
2022-11-17T01:50:07.096Z,47.05
2022-11-17T01:51:10.689Z,47.05
2022-11-17T01:52:14.258Z,47.05
2022-11-17T01:53:17.903Z,47.05
2022-11-17T01:54:21.565Z,47.15
2022-11-17T01:55:25.099Z,47.15
2022-11-17T01:56:28.706Z,47.15
2022-11-17T01:57:32.318Z,47.15
2022-11-17T01:58:35.918Z,47.15
2022-11-17T01:59:39.477Z,47.25
2022-11-17T02:00:43.141Z,47.25
2022-11-17T02:01:46.752Z,47.15
2022-11-17T02:02:50.308Z,47.15
2022-11-17T02:03:53.984Z,47.15
2022-11-17T02:04:57.592Z,47.25
2022-11-17T02:06:01.119Z,47.25
2022-11-17T02:07:04.787Z,47.25
2022-11-17T02:08:08.502Z,47.25
2022-11-17T02:09:12.063Z,47.25
2022-11-17T02:10:15.665Z,47.15
2022-11-17T02:11:19.322Z,47.15
2022-11-17T02:12:22.899Z,47.15
2022-11-17T02:13:26.459Z,47.15
2022-11-17T02:14:30.166Z,47.15
2022-11-17T02:15:33.745Z,47.15
2022-11-17T02:16:37.348Z,47.25
2022-11-17T02:17:40.993Z,47.25
2022-11-17T02:18:44.562Z,47.15
2022-11-17T02:19:48.177Z,47.25
2022-11-17T02:20:51.843Z,47.25
2022-11-17T02:21:55.492Z,47.25
2022-11-17T02:22:59.012Z,47.15
2022-11-17T02:24:02.691Z,47.15
2022-11-17T02:25:06.345Z,47.25
2022-11-17T02:26:09.852Z,47.15
2022-11-17T02:27:13.460Z,47.15
2022-11-17T02:28:17.031Z,47.15
2022-11-17T02:29:20.568Z,47.15
2022-11-17T02:30:24.262Z,47.15
2022-11-17T02:31:27.881Z,47.15
2022-11-17T02:32:31.568Z,47.25
2022-11-17T02:33:35.509Z,47.15
2022-11-17T02:34:39.331Z,47.15
2022-11-17T02:35:42.950Z,47.15
2022-11-17T02:36:46.475Z,47.15
2022-11-17T02:37:50.139Z,47.15
2022-11-17T02:38:53.755Z,47.25
2022-11-17T02:39:57.281Z,47.25
2022-11-17T02:41:01.001Z,47.25
2022-11-17T02:42:04.692Z,47.25
2022-11-17T02:43:08.212Z,47.25
2022-11-17T02:44:11.848Z,47.25
2022-11-17T02:45:15.511Z,47.15
2022-11-17T02:46:19.091Z,47.15
2022-11-17T02:47:22.661Z,47.25
2022-11-17T02:48:26.282Z,47.35
2022-11-17T02:49:29.875Z,47.25
2022-11-17T02:50:33.446Z,47.25
2022-11-17T02:51:37.133Z,47.25
2022-11-17T02:52:40.666Z,47.25
2022-11-17T02:53:44.239Z,47.25
2022-11-17T02:54:47.895Z,47.25
2022-11-17T02:55:51.427Z,47.25
2022-11-17T02:56:55.070Z,47.25
2022-11-17T02:57:58.746Z,47.35
2022-11-17T02:59:02.337Z,47.25
2022-11-17T03:00:05.881Z,47.25
2022-11-17T03:01:09.580Z,47.35
2022-11-17T03:02:13.199Z,47.25
2022-11-17T03:03:16.728Z,47.25
2022-11-17T03:04:20.447Z,47.25
2022-11-17T03:05:24.068Z,47.25
2022-11-17T03:06:27.563Z,47.35
2022-11-17T03:07:31.296Z,47.35
2022-11-17T03:08:34.931Z,47.35
2022-11-17T03:09:38.457Z,47.35
2022-11-17T03:10:42.087Z,47.35
2022-11-17T03:11:45.695Z,47.25
2022-11-17T03:12:49.253Z,47.25
2022-11-17T03:13:52.865Z,47.25
2022-11-17T03:14:56.503Z,47.25
2022-11-17T03:16:00.043Z,47.35
2022-11-17T03:17:03.639Z,47.25
2022-11-17T03:18:07.357Z,47.25
2022-11-17T03:19:10.921Z,47.25
2022-11-17T03:20:14.559Z,47.35
2022-11-17T03:21:18.224Z,47.25
2022-11-17T03:22:21.836Z,47.25
2022-11-17T03:23:25.385Z,47.15
2022-11-17T03:24:29.043Z,47.25
2022-11-17T03:25:32.651Z,47.25
2022-11-17T03:26:36.166Z,47.35
2022-11-17T03:27:39.773Z,47.35
2022-11-17T03:28:43.417Z,47.35
2022-11-17T03:29:46.951Z,47.35
2022-11-17T03:30:50.555Z,47.35
2022-11-17T03:31:54.227Z,47.35
2022-11-17T03:32:57.802Z,47.45
2022-11-17T03:34:01.322Z,47.45
2022-11-17T03:35:04.954Z,47.45
2022-11-17T03:36:08.571Z,47.47
2022-11-17T03:37:12.062Z,47.47
2022-11-17T03:38:15.665Z,47.47
2022-11-17T03:39:19.349Z,47.35
2022-11-17T03:40:22.837Z,47.47
2022-11-17T03:41:26.435Z,47.45
2022-11-17T03:42:30.102Z,47.35
2022-11-17T03:43:34.097Z,47.35
2022-11-17T03:44:37.849Z,47.47
2022-11-17T03:45:41.452Z,47.45
2022-11-17T03:46:45.106Z,47.35
2022-11-17T03:47:48.611Z,47.47
2022-11-17T03:48:52.240Z,47.58
2022-11-17T03:49:55.921Z,47.47
2022-11-17T03:50:59.479Z,47.47
2022-11-17T03:52:03.078Z,47.45
2022-11-17T03:53:06.741Z,47.45
2022-11-17T03:54:10.297Z,47.45
2022-11-17T03:55:13.877Z,47.58
2022-11-17T03:56:17.539Z,47.47
2022-11-17T03:57:21.110Z,47.45
2022-11-17T03:58:24.709Z,47.35
2022-11-17T03:59:28.323Z,47.45
2022-11-17T04:00:31.873Z,47.47
2022-11-17T04:01:35.570Z,47.35
2022-11-17T04:02:39.284Z,47.47
2022-11-17T04:03:42.792Z,47.45
2022-11-17T04:04:46.362Z,47.45
2022-11-17T04:05:50.022Z,47.47
2022-11-17T04:06:53.612Z,47.45
2022-11-17T04:07:57.267Z,47.45
2022-11-17T04:09:00.959Z,47.35
2022-11-17T04:10:04.484Z,47.47
2022-11-17T04:11:08.069Z,47.47
2022-11-17T04:12:11.763Z,47.45
2022-11-17T04:13:15.318Z,47.45
2022-11-17T04:14:18.847Z,47.47
2022-11-17T04:15:22.529Z,47.47
2022-11-17T04:16:26.195Z,47.58
2022-11-17T04:17:29.736Z,47.58
2022-11-17T04:18:33.355Z,47.47
2022-11-17T04:19:36.950Z,47.47
2022-11-17T04:20:40.481Z,47.47
2022-11-17T04:21:44.160Z,47.47
2022-11-17T04:22:47.733Z,47.47
2022-11-17T04:23:51.321Z,47.47
2022-11-17T04:24:55.003Z,47.58
2022-11-17T04:25:58.572Z,47.47
2022-11-17T04:27:02.105Z,47.47
2022-11-17T04:28:05.784Z,47.45
2022-11-17T04:29:09.391Z,47.45
2022-11-17T04:30:12.946Z,47.47
2022-11-17T04:31:16.623Z,47.47
2022-11-17T04:32:20.202Z,47.47
2022-11-17T04:33:23.773Z,47.58
2022-11-17T04:34:27.420Z,47.58
2022-11-17T04:35:30.990Z,47.58
2022-11-17T04:36:34.549Z,47.47
2022-11-17T04:37:38.197Z,47.47
2022-11-17T04:38:41.774Z,47.47
2022-11-17T04:39:45.356Z,47.58
2022-11-17T04:40:48.995Z,47.58
2022-11-17T04:41:52.549Z,47.58
2022-11-17T04:42:56.092Z,47.58
2022-11-17T04:43:59.753Z,47.58
2022-11-17T04:45:03.352Z,47.47
2022-11-17T04:46:06.914Z,47.47
2022-11-17T04:47:10.525Z,47.58
2022-11-17T04:48:14.115Z,47.58
2022-11-17T04:49:17.667Z,47.58
2022-11-17T04:50:21.305Z,47.58
2022-11-17T04:51:24.912Z,47.58
2022-11-17T04:52:30.020Z,47.47
2022-11-17T04:53:31.224Z,47.58
2022-11-17T04:54:34.753Z,47.58
2022-11-17T04:55:38.495Z,47.58
2022-11-17T04:56:42.105Z,47.58
2022-11-17T04:57:45.674Z,47.58
2022-11-17T04:58:49.365Z,47.58
2022-11-17T04:59:52.962Z,47.67
2022-11-17T05:00:56.609Z,47.67
2022-11-17T05:02:05.666Z,47.58
2022-11-17T05:03:04.586Z,47.58
2022-11-17T05:04:08.170Z,47.58
2022-11-17T05:05:11.737Z,47.47
2022-11-17T05:06:15.438Z,47.58
2022-11-17T05:07:19.106Z,47.58
2022-11-17T05:08:22.683Z,47.58
2022-11-17T05:09:26.376Z,47.58
2022-11-17T05:10:29.978Z,47.67
2022-11-17T05:11:33.558Z,47.58
2022-11-17T05:12:37.212Z,47.67
2022-11-17T05:13:40.803Z,47.67
2022-11-17T05:14:44.380Z,47.58
2022-11-17T05:15:48.019Z,47.67
2022-11-17T05:16:51.598Z,47.67
2022-11-17T05:17:55.163Z,47.67
2022-11-17T05:18:58.836Z,47.58
2022-11-17T05:20:02.462Z,47.67
2022-11-17T05:21:06.025Z,47.67
2022-11-17T05:22:09.664Z,47.77
2022-11-17T05:23:13.201Z,47.77
2022-11-17T05:24:16.760Z,47.67
2022-11-17T05:25:20.457Z,47.67
2022-11-17T05:26:24.057Z,47.67
2022-11-17T05:27:27.664Z,47.58
2022-11-17T05:28:31.337Z,47.58
2022-11-17T05:29:34.870Z,47.67
2022-11-17T05:30:38.423Z,47.67
2022-11-17T05:31:42.089Z,47.77
2022-11-17T05:32:45.625Z,47.77
2022-11-17T05:33:49.158Z,47.67
2022-11-17T05:34:52.837Z,47.67
2022-11-17T05:35:56.343Z,47.67
2022-11-17T05:36:59.978Z,47.77
2022-11-17T05:38:03.670Z,47.77
2022-11-17T05:39:07.264Z,47.67
2022-11-17T05:40:10.796Z,47.77
2022-11-17T05:41:14.454Z,47.90
2022-11-17T05:42:17.982Z,48.00
2022-11-17T05:43:21.542Z,48.10
2022-11-17T05:44:25.215Z,48.00
2022-11-17T05:45:28.813Z,48.10
2022-11-17T05:46:32.356Z,48.10
2022-11-17T05:47:35.989Z,48.10
2022-11-17T05:48:39.544Z,48.20
2022-11-17T05:49:43.098Z,48.20
2022-11-17T05:50:46.767Z,48.20
2022-11-17T05:51:52.842Z,48.20
2022-11-17T05:52:54.256Z,48.20
2022-11-17T05:53:57.863Z,48.20
2022-11-17T05:55:01.460Z,48.20
2022-11-17T05:56:05.001Z,48.10
2022-11-17T05:57:08.637Z,48.20
2022-11-17T05:58:12.326Z,48.20
2022-11-17T05:59:15.911Z,48.20
2022-11-17T06:00:19.540Z,48.20
2022-11-17T06:01:23.182Z,48.20
2022-11-17T06:02:26.767Z,48.20
2022-11-17T06:03:30.337Z,48.20
2022-11-17T06:04:34.105Z,48.30
2022-11-17T06:05:37.724Z,48.30
2022-11-17T06:06:41.295Z,48.10
2022-11-17T06:07:44.957Z,48.00
2022-11-17T06:08:48.518Z,47.88
2022-11-17T06:09:52.111Z,47.88
2022-11-17T06:10:55.810Z,47.88
2022-11-17T06:12:05.307Z,47.88
2022-11-17T06:13:02.182Z,47.88
2022-11-17T06:14:05.794Z,47.97
2022-11-17T06:15:09.424Z,48.08
2022-11-17T06:16:13.021Z,48.18
2022-11-17T06:17:21.771Z,48.28
2022-11-17T06:18:21.286Z,48.38
2022-11-17T06:19:24.793Z,48.58
2022-11-17T06:20:28.403Z,48.48
2022-11-17T06:21:49.284Z,48.58
2022-11-17T06:22:35.623Z,48.58
2022-11-17T06:23:39.248Z,48.48
2022-11-17T06:24:42.949Z,48.48
2022-11-17T06:25:46.513Z,48.48
2022-11-17T06:26:50.064Z,48.58
2022-11-17T06:27:53.748Z,48.68
2022-11-17T06:28:57.361Z,48.58
2022-11-17T06:30:00.947Z,48.58
2022-11-17T06:31:04.665Z,48.48
2022-11-17T06:32:08.271Z,48.58
2022-11-17T06:33:11.814Z,48.48
2022-11-17T06:34:15.460Z,48.48
2022-11-17T06:35:19.018Z,48.38
2022-11-17T06:36:22.560Z,48.48
2022-11-17T06:37:26.234Z,48.48
2022-11-17T06:38:29.904Z,48.48
2022-11-17T06:39:33.405Z,48.58
2022-11-17T06:40:37.043Z,48.48
2022-11-17T06:41:40.611Z,48.58
2022-11-17T06:42:44.126Z,48.58
2022-11-17T06:43:47.769Z,48.68
2022-11-17T06:44:51.406Z,48.78
2022-11-17T06:45:54.973Z,48.78
2022-11-17T06:46:58.597Z,48.68
2022-11-17T06:48:02.189Z,48.78
2022-11-17T06:49:05.718Z,48.78
2022-11-17T06:50:09.369Z,48.68
2022-11-17T06:51:12.975Z,48.88
2022-11-17T06:52:16.505Z,48.88
2022-11-17T06:53:20.110Z,48.90
2022-11-17T06:54:23.785Z,49.01
2022-11-17T06:55:27.367Z,48.98
2022-11-17T06:56:30.908Z,49.01
2022-11-17T06:57:34.597Z,49.01
2022-11-17T06:58:38.462Z,49.10
2022-11-17T06:59:42.112Z,49.10
2022-11-17T07:00:45.843Z,49.10
2022-11-17T07:01:49.580Z,49.21
2022-11-17T07:02:53.196Z,49.08
2022-11-17T07:03:56.736Z,49.08
2022-11-17T07:05:00.447Z,48.98
2022-11-17T07:06:04.099Z,48.98
2022-11-17T07:07:07.711Z,49.10
2022-11-17T07:08:11.367Z,49.10
2022-11-17T07:09:15.026Z,49.10
2022-11-17T07:10:18.597Z,49.10
2022-11-17T07:11:22.218Z,49.10
2022-11-17T07:12:25.884Z,49.01
2022-11-17T07:13:29.434Z,49.01
2022-11-17T07:14:32.936Z,49.01
2022-11-17T07:15:36.581Z,49.01
2022-11-17T07:16:40.210Z,49.01
2022-11-17T07:17:43.749Z,49.01
2022-11-17T07:18:47.423Z,49.01
2022-11-17T07:19:51.055Z,49.01
2022-11-17T07:20:54.950Z,49.01
2022-11-17T07:21:58.550Z,49.01
2022-11-17T07:23:02.166Z,49.01
2022-11-17T07:24:05.804Z,48.90
2022-11-17T07:25:09.296Z,49.10
2022-11-17T07:26:12.868Z,49.01
2022-11-17T07:27:16.579Z,49.01
2022-11-17T07:28:20.164Z,48.88
2022-11-17T07:29:23.713Z,48.88
2022-11-17T07:30:27.400Z,48.98
2022-11-17T07:31:31.149Z,49.08
2022-11-17T07:32:34.733Z,49.18
2022-11-17T07:33:38.335Z,49.18
2022-11-17T07:34:41.999Z,49.18
2022-11-17T07:35:45.591Z,49.08
2022-11-17T07:36:49.128Z,49.08
2022-11-17T07:37:52.814Z,49.08
2022-11-17T07:38:56.352Z,48.98
2022-11-17T07:39:59.937Z,49.08
2022-11-17T07:41:03.603Z,49.08
2022-11-17T07:42:07.212Z,49.08
2022-11-17T07:43:10.751Z,49.08
2022-11-17T07:44:14.374Z,49.21
2022-11-17T07:45:17.997Z,49.21
2022-11-17T07:46:21.578Z,49.21
2022-11-17T07:47:25.221Z,49.30
2022-11-17T07:48:28.904Z,49.21
2022-11-17T07:49:32.468Z,49.08
2022-11-17T07:50:36.136Z,49.21
2022-11-17T07:51:39.774Z,49.18
2022-11-17T07:52:43.367Z,49.18
2022-11-17T07:53:46.881Z,49.08
2022-11-17T07:54:50.495Z,49.30
2022-11-17T07:55:54.189Z,49.30
2022-11-17T07:56:57.724Z,49.28
2022-11-17T07:58:01.292Z,49.40
2022-11-17T07:59:05.018Z,49.28
2022-11-17T08:00:08.621Z,49.28
2022-11-17T08:01:12.176Z,49.18
2022-11-17T08:02:15.764Z,49.18
2022-11-17T08:03:19.403Z,49.28
2022-11-17T08:04:22.991Z,49.28
2022-11-17T08:05:26.522Z,49.28
2022-11-17T08:06:30.194Z,49.28
2022-11-17T08:07:33.841Z,49.18
2022-11-17T08:08:37.954Z,49.38
2022-11-17T08:09:41.753Z,49.48
2022-11-17T08:10:45.369Z,49.58
2022-11-17T08:11:49.124Z,49.98
2022-11-17T08:12:52.669Z,50.18
2022-11-17T08:13:56.274Z,50.38
2022-11-17T08:14:59.960Z,50.48
2022-11-17T08:16:03.586Z,50.68
2022-11-17T08:17:07.155Z,50.79
2022-11-17T08:18:10.768Z,50.89
2022-11-17T08:19:14.377Z,50.89
2022-11-17T08:20:17.922Z,50.89
2022-11-17T08:21:21.521Z,50.99
2022-11-17T08:22:25.546Z,50.99
2022-11-17T08:23:29.204Z,51.09
2022-11-17T08:24:32.740Z,51.19
2022-11-17T08:25:36.438Z,51.09
2022-11-17T08:26:40.082Z,51.39
2022-11-17T08:27:43.615Z,51.29
2022-11-17T08:28:47.165Z,51.39
2022-11-17T08:29:50.828Z,51.49
2022-11-17T08:30:54.449Z,51.49
2022-11-17T08:31:57.973Z,51.49
2022-11-17T08:33:01.626Z,51.59
2022-11-17T08:34:05.279Z,51.49
2022-11-17T08:35:08.818Z,51.59
2022-11-17T08:36:12.379Z,51.59
2022-11-17T08:37:16.089Z,51.59
2022-11-17T08:38:19.715Z,51.59
2022-11-17T08:39:23.304Z,51.49
2022-11-17T08:40:26.918Z,51.59
2022-11-17T08:41:30.567Z,51.59
2022-11-17T08:42:34.136Z,51.49
2022-11-17T08:43:37.632Z,51.49
2022-11-17T08:44:41.273Z,51.39
2022-11-17T08:45:44.900Z,51.49
2022-11-17T08:46:48.419Z,51.49
2022-11-17T08:47:52.002Z,51.59
2022-11-17T08:48:57.232Z,51.49
2022-11-17T08:49:58.442Z,51.49
2022-11-17T08:51:02.102Z,51.49
2022-11-17T08:52:05.789Z,51.69
2022-11-17T08:53:09.341Z,51.49
2022-11-17T08:54:12.974Z,51.39
2022-11-17T08:55:16.656Z,51.39
2022-11-17T08:56:20.215Z,51.39
2022-11-17T08:57:23.853Z,51.39
2022-11-17T08:58:27.538Z,51.49
2022-11-17T08:59:31.140Z,51.69
2022-11-17T09:00:34.680Z,51.59
2022-11-17T09:01:38.360Z,51.69
2022-11-17T09:02:42.083Z,51.67
2022-11-17T09:03:45.636Z,51.46
2022-11-17T09:04:49.212Z,51.37
2022-11-17T09:05:52.884Z,52.07
2022-11-17T09:06:56.528Z,51.46
2022-11-17T09:08:22.345Z,51.46
2022-11-17T09:09:04.235Z,52.24
2022-11-17T09:10:08.294Z,51.94
2022-11-17T09:11:12.003Z,51.84
2022-11-17T09:12:15.542Z,52.34
2022-11-17T09:13:19.201Z,51.82
2022-11-17T09:14:22.848Z,51.92
2022-11-17T09:15:26.423Z,52.42
2022-11-17T09:16:29.977Z,52.42
2022-11-17T09:17:33.645Z,52.62
2022-11-17T09:18:37.783Z,52.52
2022-11-17T09:19:41.727Z,52.29
2022-11-17T09:20:46.001Z,52.19
2022-11-17T09:21:49.665Z,52.09
2022-11-17T09:22:53.301Z,52.39
2022-11-17T09:23:56.957Z,52.09
2022-11-17T09:25:00.540Z,52.29
2022-11-17T09:26:04.062Z,52.07
2022-11-17T09:27:07.660Z,52.67
2022-11-17T09:28:11.265Z,52.57
2022-11-17T09:29:14.829Z,53.07
2022-11-17T09:30:18.431Z,53.17
2022-11-17T09:31:22.221Z,52.97
2022-11-17T09:32:25.912Z,53.27
2022-11-17T09:33:29.453Z,53.27
2022-11-17T09:34:33.168Z,53.37
2022-11-17T09:35:37.219Z,53.37
2022-11-17T09:36:40.829Z,53.27
2022-11-17T09:37:44.371Z,53.17
2022-11-17T09:38:48.016Z,53.27
2022-11-17T09:39:51.715Z,53.47
2022-11-17T09:40:55.542Z,53.17
2022-11-17T09:41:59.132Z,53.17
2022-11-17T09:43:02.771Z,53.27
2022-11-17T09:44:06.428Z,53.24
2022-11-17T09:45:10.082Z,53.24
2022-11-17T09:46:13.588Z,53.14
2022-11-17T09:47:17.200Z,53.24
2022-11-17T09:48:40.654Z,53.24
2022-11-17T09:49:24.962Z,53.24
2022-11-17T09:50:28.530Z,53.44
2022-11-17T09:51:32.132Z,53.44
2022-11-17T09:52:35.799Z,53.55
2022-11-17T09:53:39.371Z,53.44
2022-11-17T09:54:42.881Z,53.05
2022-11-17T09:55:46.724Z,53.24
2022-11-17T09:56:50.488Z,53.24
2022-11-17T09:57:54.335Z,53.14
2022-11-17T09:58:57.830Z,53.05
2022-11-17T10:00:01.456Z,52.94
2022-11-17T10:01:05.163Z,52.72
2022-11-17T10:02:08.797Z,52.62
2022-11-17T10:03:12.407Z,52.49
2022-11-17T10:04:16.091Z,52.32
2022-11-17T10:05:19.695Z,52.72
2022-11-17T10:06:23.238Z,52.82
2022-11-17T10:07:26.858Z,52.29
2022-11-17T10:08:30.580Z,51.87
2022-11-17T10:09:34.153Z,51.67
2022-11-17T10:10:37.688Z,51.87
2022-11-17T10:11:41.396Z,51.87
2022-11-17T10:12:44.987Z,51.87
2022-11-17T10:13:48.557Z,52.64
2022-11-17T10:14:52.204Z,51.02
2022-11-17T10:15:55.822Z,50.92
2022-11-17T10:16:59.401Z,51.02
2022-11-17T10:18:02.994Z,50.92
2022-11-17T10:19:06.666Z,51.12
2022-11-17T10:20:10.322Z,51.32
2022-11-17T10:21:13.880Z,51.02
2022-11-17T10:22:20.358Z,51.32
2022-11-17T10:23:21.906Z,50.92
2022-11-17T10:24:25.545Z,51.12
2022-11-17T10:25:30.425Z,50.72
2022-11-17T10:26:34.175Z,51.02
2022-11-17T10:27:37.753Z,51.02
2022-11-17T10:28:41.258Z,51.12
2022-11-17T10:29:44.970Z,51.45
2022-11-17T10:30:48.706Z,51.54
2022-11-17T10:31:52.364Z,51.75
2022-11-17T10:32:55.888Z,51.67
2022-11-17T10:33:59.504Z,51.77
2022-11-17T10:35:03.205Z,51.67
2022-11-17T10:36:06.801Z,51.67
2022-11-17T10:37:10.338Z,51.77
2022-11-17T10:38:14.003Z,51.77
2022-11-17T10:39:17.982Z,51.77
2022-11-17T10:40:25.264Z,51.77
2022-11-17T10:41:24.401Z,51.77
2022-11-17T10:42:28.055Z,51.77
2022-11-17T10:43:31.888Z,51.67
2022-11-17T10:44:35.473Z,51.37
2022-11-17T10:45:39.114Z,51.37
2022-11-17T10:46:46.409Z,51.27
2022-11-17T10:47:47.732Z,52.17
2022-11-17T10:48:51.474Z,52.49
2022-11-17T10:49:55.082Z,52.29
2022-11-17T10:50:58.659Z,52.19
2022-11-17T10:52:02.373Z,52.09
2022-11-17T10:53:10.096Z,52.00
2022-11-17T10:54:08.706Z,52.09
2022-11-17T10:55:12.335Z,52.00
2022-11-17T10:56:15.874Z,52.22
2022-11-17T10:57:19.509Z,52.22
2022-11-17T10:58:23.182Z,52.22
2022-11-17T10:59:26.757Z,52.22
2022-11-17T11:00:30.341Z,52.22
2022-11-17T11:01:34.107Z,52.34
2022-11-17T11:02:37.783Z,52.44
2022-11-17T11:03:41.305Z,52.34
2022-11-17T11:04:44.919Z,52.44
2022-11-17T11:05:48.579Z,52.55
2022-11-17T11:06:52.159Z,52.55
2022-11-17T11:07:55.699Z,52.64
2022-11-17T11:08:59.367Z,52.64
2022-11-17T11:10:02.996Z,52.55
2022-11-17T11:11:06.509Z,52.44
2022-11-17T11:12:10.158Z,52.34
2022-11-17T11:13:13.733Z,52.24
2022-11-17T11:14:17.280Z,51.82
2022-11-17T11:15:20.931Z,51.82
2022-11-17T11:16:24.540Z,51.72
2022-11-17T11:17:28.140Z,51.82
2022-11-17T11:18:31.711Z,51.82
2022-11-17T11:19:35.315Z,51.82
2022-11-17T11:20:38.831Z,52.12
2022-11-17T11:21:42.439Z,52.22
2022-11-17T11:22:46.078Z,51.89
2022-11-17T11:23:49.617Z,51.79
2022-11-17T11:24:53.150Z,51.79
2022-11-17T11:25:56.803Z,51.79
2022-11-17T11:27:00.398Z,51.79
2022-11-17T11:28:03.898Z,51.79
2022-11-17T11:29:07.701Z,51.77
2022-11-17T11:30:11.512Z,51.77
2022-11-17T11:31:15.101Z,51.77
2022-11-17T11:32:18.646Z,51.77
2022-11-17T11:33:22.286Z,51.77
2022-11-17T11:34:25.998Z,51.77
2022-11-17T11:35:29.538Z,51.77
2022-11-17T11:36:33.256Z,51.77
2022-11-17T11:37:36.943Z,51.77
2022-11-17T11:38:40.548Z,51.77
2022-11-17T11:39:44.127Z,51.77
2022-11-17T11:40:47.784Z,51.77
2022-11-17T11:41:51.431Z,51.75
2022-11-17T11:42:54.975Z,51.75
2022-11-17T11:43:58.545Z,51.64
2022-11-17T11:45:02.188Z,51.75
2022-11-17T11:46:05.801Z,51.64
2022-11-17T11:47:09.308Z,51.64
2022-11-17T11:48:12.920Z,51.54
2022-11-17T11:49:16.577Z,51.54
2022-11-17T11:50:20.070Z,51.52
2022-11-17T11:51:23.670Z,51.12
2022-11-17T11:52:27.365Z,50.82
2022-11-17T11:53:30.933Z,50.60
2022-11-17T11:54:38.172Z,50.60
2022-11-17T11:55:38.652Z,50.70
2022-11-17T11:56:42.289Z,50.20
2022-11-17T11:57:45.875Z,50.30
2022-11-17T11:58:49.413Z,50.40
2022-11-17T11:59:53.022Z,50.42
2022-11-17T12:00:56.651Z,50.42
2022-11-17T12:02:00.227Z,50.72
2022-11-17T12:03:03.913Z,50.20
2022-11-17T12:04:07.648Z,50.10
2022-11-17T12:05:11.238Z,50.10
2022-11-17T12:06:14.774Z,50.42
2022-11-17T12:07:18.490Z,50.42
2022-11-17T12:08:22.196Z,50.52
2022-11-17T12:09:25.736Z,50.52
2022-11-17T12:10:29.382Z,50.42
2022-11-17T12:11:33.042Z,50.42
2022-11-17T12:12:36.579Z,50.52
2022-11-17T12:13:47.246Z,50.72
2022-11-17T12:14:43.350Z,50.62
2022-11-17T12:15:46.922Z,50.42
2022-11-17T12:16:50.561Z,50.52
2022-11-17T12:17:54.233Z,50.42
2022-11-17T12:18:57.811Z,50.42
2022-11-17T12:20:06.025Z,50.32
2022-11-17T12:21:05.508Z,50.22
2022-11-17T12:22:09.147Z,50.02
2022-11-17T12:23:12.787Z,50.02
2022-11-17T12:24:16.303Z,49.92
2022-11-17T12:25:19.909Z,49.72
2022-11-17T12:26:23.548Z,49.72
2022-11-17T12:27:27.082Z,49.62
2022-11-17T12:28:30.693Z,49.52
2022-11-17T12:29:34.310Z,49.52
2022-11-17T12:30:37.984Z,49.52
2022-11-17T12:31:41.620Z,49.52
2022-11-17T12:32:45.127Z,49.52
2022-11-17T12:33:48.750Z,49.42
2022-11-17T12:34:52.491Z,49.42
2022-11-17T12:35:56.017Z,49.32
2022-11-17T12:36:59.658Z,49.32
2022-11-17T12:38:03.270Z,49.32
2022-11-17T12:39:06.867Z,49.22
2022-11-17T12:40:10.500Z,49.12
2022-11-17T12:41:14.093Z,49.32
2022-11-17T12:42:17.750Z,50.32
2022-11-17T12:43:21.419Z,50.15
2022-11-17T12:44:24.951Z,50.15
2022-11-17T12:45:28.506Z,49.85
2022-11-17T12:46:32.142Z,49.87
2022-11-17T12:47:35.846Z,50.27
2022-11-17T12:48:39.635Z,49.87
2022-11-17T12:49:43.301Z,50.07
2022-11-17T12:50:46.929Z,49.87
2022-11-17T12:51:50.611Z,49.67
2022-11-17T12:52:54.213Z,49.87
2022-11-17T12:53:57.750Z,49.77
2022-11-17T12:55:01.448Z,49.37
2022-11-17T12:56:05.058Z,49.27
2022-11-17T12:57:08.593Z,49.27
2022-11-17T12:58:12.243Z,48.97
2022-11-17T12:59:15.873Z,48.87
2022-11-17T13:00:19.399Z,48.87
2022-11-17T13:01:23.095Z,49.07
2022-11-17T13:02:26.796Z,48.77
2022-11-17T13:03:30.369Z,48.87
2022-11-17T13:04:33.969Z,48.67
2022-11-17T13:05:37.648Z,48.57
2022-11-17T13:06:41.236Z,49.07
2022-11-17T13:07:44.756Z,48.69
2022-11-17T13:08:48.400Z,48.87
2022-11-17T13:09:52.056Z,48.77
2022-11-17T13:10:55.578Z,48.57
2022-11-17T13:11:59.175Z,48.60
2022-11-17T13:13:02.818Z,48.69
2022-11-17T13:14:06.386Z,49.19
2022-11-17T13:15:09.914Z,48.67
2022-11-17T13:16:13.577Z,48.77
2022-11-17T13:17:17.277Z,48.77
2022-11-17T13:18:20.795Z,48.67
2022-11-17T13:19:24.401Z,48.17
2022-11-17T13:20:28.102Z,48.05
2022-11-17T13:21:31.724Z,48.14
2022-11-17T13:22:39.110Z,48.14
2022-11-17T13:23:37.961Z,48.05
2022-11-17T13:24:41.509Z,48.14
2022-11-17T13:25:45.109Z,48.14
2022-11-17T13:26:48.711Z,48.14
2022-11-17T13:27:57.102Z,48.14
2022-11-17T13:28:55.931Z,48.14
2022-11-17T13:29:59.571Z,47.95
2022-11-17T13:31:03.142Z,47.85
2022-11-17T13:32:06.703Z,47.75
2022-11-17T13:33:10.360Z,47.55
2022-11-17T13:34:14.236Z,47.55
2022-11-17T13:35:18.001Z,47.45
2022-11-17T13:36:21.559Z,47.35
2022-11-17T13:37:25.200Z,47.65
2022-11-17T13:38:28.840Z,47.55
2022-11-17T13:39:32.374Z,47.45